sensor_id;sensor_type;location;lat;lon;timestamp;temperature;humidity
66610;DHT22;53468;48.276;14.416;2022-09-09T00:03:14;12.90;99.90
66610;DHT22;53468;48.276;14.416;2022-09-09T00:08:57;12.90;99.90
66610;DHT22;53468;48.276;14.416;2022-09-09T00:14:37;13.00;99.90
66610;DHT22;53468;48.276;14.416;2022-09-09T00:20:14;12.90;99.90
66610;DHT22;53468;48.276;14.416;2022-09-09T00:25:55;12.80;99.90
66610;DHT22;53468;48.276;14.416;2022-09-09T00:31:31;12.80;99.90
66610;DHT22;53468;48.276;14.416;2022-09-09T00:37:04;12.80;99.90
66610;DHT22;53468;48.276;14.416;2022-09-09T00:42:41;12.70;99.90
66610;DHT22;53468;48.276;14.416;2022-09-09T00:48:14;12.60;99.90
66610;DHT22;53468;48.276;14.416;2022-09-09T00:54:03;12.50;99.90
66610;DHT22;53468;48.276;14.416;2022-09-09T00:59:47;12.50;99.90
66610;DHT22;53468;48.276;14.416;2022-09-09T01:05:24;12.50;99.90
66610;DHT22;53468;48.276;14.416;2022-09-09T01:10:59;12.40;99.90
66610;DHT22;53468;48.276;14.416;2022-09-09T01:16:34;12.40;99.90
66610;DHT22;53468;48.276;14.416;2022-09-09T01:22:11;12.30;99.90
66610;DHT22;53468;48.276;14.416;2022-09-09T01:27:48;12.30;99.90
66610;DHT22;53468;48.276;14.416;2022-09-09T01:33:21;12.20;99.90
66610;DHT22;53468;48.276;14.416;2022-09-09T01:38:54;12.20;99.90
66610;DHT22;53468;48.276;14.416;2022-09-09T01:44:28;12.20;99.90
66610;DHT22;53468;48.276;14.416;2022-09-09T01:50:02;12.10;99.90
66610;DHT22;53468;48.276;14.416;2022-09-09T01:55:38;12.10;99.90
66610;DHT22;53468;48.276;14.416;2022-09-09T02:01:17;12.20;99.90
66610;DHT22;53468;48.276;14.416;2022-09-09T02:06:56;12.10;99.90
66610;DHT22;53468;48.276;14.416;2022-09-09T02:12:30;12.00;99.90
66610;DHT22;53468;48.276;14.416;2022-09-09T02:18:06;12.00;99.90
66610;DHT22;53468;48.276;14.416;2022-09-09T02:23:41;12.00;99.90
66610;DHT22;53468;48.276;14.416;2022-09-09T02:29:19;12.00;99.90
66610;DHT22;53468;48.276;14.416;2022-09-09T02:35:00;12.00;99.90
66610;DHT22;53468;48.276;14.416;2022-09-09T02:40:34;12.00;99.90
66610;DHT22;53468;48.276;14.416;2022-09-09T02:46:14;12.00;99.90
66610;DHT22;53468;48.276;14.416;2022-09-09T02:52:00;11.90;99.90
66610;DHT22;53468;48.276;14.416;2022-09-09T02:57:33;11.90;99.90
66610;DHT22;53468;48.276;14.416;2022-09-09T03:03:06;11.90;99.90
66610;DHT22;53468;48.276;14.416;2022-09-09T03:08:41;11.80;99.90
66610;DHT22;53468;48.276;14.416;2022-09-09T03:14:13;11.90;99.90
66610;DHT22;53468;48.276;14.416;2022-09-09T03:19:46;11.80;99.90
66610;DHT22;53468;48.276;14.416;2022-09-09T03:25:22;11.80;99.90
66610;DHT22;53468;48.276;14.416;2022-09-09T03:30:58;11.70;99.90
66610;DHT22;53468;48.276;14.416;2022-09-09T03:36:31;11.80;99.90
66610;DHT22;53468;48.276;14.416;2022-09-09T03:42:07;11.80;99.90
66610;DHT22;53468;48.276;14.416;2022-09-09T03:47:39;11.90;99.90
66610;DHT22;53468;48.276;14.416;2022-09-09T03:53:11;11.90;99.90
66610;DHT22;53468;48.276;14.416;2022-09-09T03:58:45;11.90;99.90
66610;DHT22;53468;48.276;14.416;2022-09-09T04:04:17;11.90;99.90
66610;DHT22;53468;48.276;14.416;2022-09-09T04:09:50;11.80;99.90
66610;DHT22;53468;48.276;14.416;2022-09-09T04:15:24;11.80;99.90
66610;DHT22;53468;48.276;14.416;2022-09-09T04:20:56;11.80;99.90
66610;DHT22;53468;48.276;14.416;2022-09-09T04:26:29;11.70;99.90
66610;DHT22;53468;48.276;14.416;2022-09-09T04:32:03;11.70;99.90
66610;DHT22;53468;48.276;14.416;2022-09-09T04:44:03;11.80;99.90
66610;DHT22;53468;48.276;14.416;2022-09-09T04:49:36;11.80;99.90
66610;DHT22;53468;48.276;14.416;2022-09-09T04:55:09;12.00;99.90
66610;DHT22;53468;48.276;14.416;2022-09-09T05:00:41;12.10;99.90
66610;DHT22;53468;48.276;14.416;2022-09-09T05:06:18;12.20;99.90
66610;DHT22;53468;48.276;14.416;2022-09-09T05:11:51;12.20;99.90
66610;DHT22;53468;48.276;14.416;2022-09-09T05:17:23;12.30;99.90
66610;DHT22;53468;48.276;14.416;2022-09-09T05:22:57;12.50;99.90
66610;DHT22;53468;48.276;14.416;2022-09-09T05:28:29;12.60;99.90
66610;DHT22;53468;48.276;14.416;2022-09-09T05:34:02;12.70;99.90
66610;DHT22;53468;48.276;14.416;2022-09-09T05:39:35;12.90;99.90
66610;DHT22;53468;48.276;14.416;2022-09-09T05:45:09;13.10;99.90
66610;DHT22;53468;48.276;14.416;2022-09-09T05:50:41;13.30;99.90
66610;DHT22;53468;48.276;14.416;2022-09-09T05:56:16;13.50;99.90
66610;DHT22;53468;48.276;14.416;2022-09-09T06:01:49;13.70;99.90
66610;DHT22;53468;48.276;14.416;2022-09-09T06:07:21;14.00;99.90
66610;DHT22;53468;48.276;14.416;2022-09-09T06:12:55;14.30;99.90
66610;DHT22;53468;48.276;14.416;2022-09-09T06:18:27;14.60;99.90
66610;DHT22;53468;48.276;14.416;2022-09-09T06:24:00;14.80;99.90
66610;DHT22;53468;48.276;14.416;2022-09-09T06:29:34;15.00;99.90
66610;DHT22;53468;48.276;14.416;2022-09-09T06:35:06;15.10;99.90
66610;DHT22;53468;48.276;14.416;2022-09-09T06:40:38;15.30;99.90
66610;DHT22;53468;48.276;14.416;2022-09-09T06:46:14;15.50;99.90
66610;DHT22;53468;48.276;14.416;2022-09-09T06:51:46;15.50;99.90
66610;DHT22;53468;48.276;14.416;2022-09-09T06:57:20;15.70;99.90
66610;DHT22;53468;48.276;14.416;2022-09-09T07:02:54;15.70;99.90
66610;DHT22;53468;48.276;14.416;2022-09-09T07:08:26;15.70;99.90
66610;DHT22;53468;48.276;14.416;2022-09-09T07:14:00;15.90;99.90
66610;DHT22;53468;48.276;14.416;2022-09-09T07:19:33;15.90;99.90
66610;DHT22;53468;48.276;14.416;2022-09-09T07:25:06;16.00;99.90
66610;DHT22;53468;48.276;14.416;2022-09-09T07:30:39;16.10;99.90
66610;DHT22;53468;48.276;14.416;2022-09-09T07:36:15;16.20;99.90
66610;DHT22;53468;48.276;14.416;2022-09-09T07:41:49;16.40;99.90
66610;DHT22;53468;48.276;14.416;2022-09-09T07:47:21;16.70;99.90
66610;DHT22;53468;48.276;14.416;2022-09-09T07:52:56;16.90;99.90
66610;DHT22;53468;48.276;14.416;2022-09-09T07:58:29;17.20;99.90
66610;DHT22;53468;48.276;14.416;2022-09-09T08:04:04;17.30;99.90
66610;DHT22;53468;48.276;14.416;2022-09-09T08:09:39;17.50;99.90
66610;DHT22;53468;48.276;14.416;2022-09-09T08:15:11;17.70;99.90
66610;DHT22;53468;48.276;14.416;2022-09-09T08:20:44;17.90;99.90
66610;DHT22;53468;48.276;14.416;2022-09-09T08:26:18;18.00;99.90
66610;DHT22;53468;48.276;14.416;2022-09-09T08:31:54;17.90;99.90
66610;DHT22;53468;48.276;14.416;2022-09-09T08:37:27;18.00;99.90
66610;DHT22;53468;48.276;14.416;2022-09-09T08:43:02;18.00;99.90
66610;DHT22;53468;48.276;14.416;2022-09-09T08:48:46;18.20;99.90
66610;DHT22;53468;48.276;14.416;2022-09-09T08:54:20;18.20;99.90
66610;DHT22;53468;48.276;14.416;2022-09-09T08:59:56;18.10;99.90
66610;DHT22;53468;48.276;14.416;2022-09-09T09:05:32;17.90;99.90
66610;DHT22;53468;48.276;14.416;2022-09-09T09:11:08;18.00;99.90
66610;DHT22;53468;48.276;14.416;2022-09-09T09:16:48;17.90;99.90
66610;DHT22;53468;48.276;14.416;2022-09-09T09:22:22;17.60;99.90
66610;DHT22;53468;48.276;14.416;2022-09-09T09:27:58;17.40;99.90
66610;DHT22;53468;48.276;14.416;2022-09-09T09:33:37;17.60;99.90
66610;DHT22;53468;48.276;14.416;2022-09-09T09:39:23;17.70;99.90
66610;DHT22;53468;48.276;14.416;2022-09-09T09:44:55;17.70;99.90
66610;DHT22;53468;48.276;14.416;2022-09-09T09:50:29;17.70;99.90
66610;DHT22;53468;48.276;14.416;2022-09-09T09:56:03;17.50;99.90
66610;DHT22;53468;48.276;14.416;2022-09-09T10:01:37;17.50;99.90
66610;DHT22;53468;48.276;14.416;2022-09-09T10:07:18;17.40;99.90
66610;DHT22;53468;48.276;14.416;2022-09-09T10:12:57;17.30;99.90
66610;DHT22;53468;48.276;14.416;2022-09-09T10:18:36;17.40;99.90
66610;DHT22;53468;48.276;14.416;2022-09-09T10:30:17;17.60;99.90
66610;DHT22;53468;48.276;14.416;2022-09-09T10:35:53;17.70;99.90
66610;DHT22;53468;48.276;14.416;2022-09-09T10:41:44;17.50;99.90
66610;DHT22;53468;48.276;14.416;2022-09-09T10:47:29;17.50;99.90
66610;DHT22;53468;48.276;14.416;2022-09-09T10:53:11;17.80;99.90
66610;DHT22;53468;48.276;14.416;2022-09-09T10:58:51;18.10;99.90
66610;DHT22;53468;48.276;14.416;2022-09-09T11:04:28;18.20;99.90
66610;DHT22;53468;48.276;14.416;2022-09-09T11:10:07;18.40;99.90
66610;DHT22;53468;48.276;14.416;2022-09-09T11:15:51;18.30;99.90
66610;DHT22;53468;48.276;14.416;2022-09-09T11:21:26;18.50;99.90
66610;DHT22;53468;48.276;14.416;2022-09-09T11:27:08;18.60;99.90
66610;DHT22;53468;48.276;14.416;2022-09-09T11:39:12;18.90;99.90
66610;DHT22;53468;48.276;14.416;2022-09-09T11:44:49;19.00;99.90
66610;DHT22;53468;48.276;14.416;2022-09-09T11:50:30;19.30;99.90
66610;DHT22;53468;48.276;14.416;2022-09-09T11:56:07;19.20;99.90
66610;DHT22;53468;48.276;14.416;2022-09-09T12:01:42;19.40;99.90
66610;DHT22;53468;48.276;14.416;2022-09-09T12:07:36;19.60;99.90
66610;DHT22;53468;48.276;14.416;2022-09-09T12:13:18;19.30;99.90
66610;DHT22;53468;48.276;14.416;2022-09-09T12:18:50;19.00;99.90
66610;DHT22;53468;48.276;14.416;2022-09-09T12:24:30;19.10;99.90
66610;DHT22;53468;48.276;14.416;2022-09-09T12:30:10;19.10;99.90
66610;DHT22;53468;48.276;14.416;2022-09-09T12:35:45;19.00;99.90
66610;DHT22;53468;48.276;14.416;2022-09-09T12:41:21;19.20;99.90
66610;DHT22;53468;48.276;14.416;2022-09-09T12:46:58;19.60;99.90
66610;DHT22;53468;48.276;14.416;2022-09-09T12:52:32;19.80;99.90
66610;DHT22;53468;48.276;14.416;2022-09-09T12:58:06;19.80;99.90
66610;DHT22;53468;48.276;14.416;2022-09-09T13:03:43;19.80;99.90
66610;DHT22;53468;48.276;14.416;2022-09-09T13:09:18;19.60;99.90
66610;DHT22;53468;48.276;14.416;2022-09-09T13:14:53;19.50;99.90
66610;DHT22;53468;48.276;14.416;2022-09-09T13:20:27;19.40;99.90
66610;DHT22;53468;48.276;14.416;2022-09-09T13:26:02;19.30;99.90
66610;DHT22;53468;48.276;14.416;2022-09-09T13:31:37;19.40;99.90
66610;DHT22;53468;48.276;14.416;2022-09-09T13:37:22;19.20;99.90
66610;DHT22;53468;48.276;14.416;2022-09-09T13:42:56;19.00;99.90
66610;DHT22;53468;48.276;14.416;2022-09-09T13:48:29;19.00;99.90
66610;DHT22;53468;48.276;14.416;2022-09-09T13:54:04;19.10;99.90
66610;DHT22;53468;48.276;14.416;2022-09-09T13:59:37;19.10;99.90
66610;DHT22;53468;48.276;14.416;2022-09-09T14:05:09;19.00;99.90
66610;DHT22;53468;48.276;14.416;2022-09-09T14:10:43;18.80;99.90
66610;DHT22;53468;48.276;14.416;2022-09-09T14:16:16;18.60;99.90
66610;DHT22;53468;48.276;14.416;2022-09-09T14:21:48;18.50;99.90
66610;DHT22;53468;48.276;14.416;2022-09-09T14:27:22;18.60;99.90
66610;DHT22;53468;48.276;14.416;2022-09-09T14:32:56;18.60;99.90
66610;DHT22;53468;48.276;14.416;2022-09-09T14:38:29;18.40;99.90
66610;DHT22;53468;48.276;14.416;2022-09-09T14:44:03;18.30;99.90
66610;DHT22;53468;48.276;14.416;2022-09-09T14:49:35;18.40;99.90
66610;DHT22;53468;48.276;14.416;2022-09-09T14:55:08;18.40;99.90
66610;DHT22;53468;48.276;14.416;2022-09-09T15:00:41;18.40;99.90
66610;DHT22;53468;48.276;14.416;2022-09-09T15:06:14;18.30;99.90
66610;DHT22;53468;48.276;14.416;2022-09-09T15:11:46;18.30;99.90
66610;DHT22;53468;48.276;14.416;2022-09-09T15:17:20;18.20;99.90
66610;DHT22;53468;48.276;14.416;2022-09-09T15:22:52;18.10;99.90
66610;DHT22;53468;48.276;14.416;2022-09-09T15:28:24;17.90;99.90
66610;DHT22;53468;48.276;14.416;2022-09-09T15:33:59;17.70;99.90
66610;DHT22;53468;48.276;14.416;2022-09-09T15:39:32;17.60;99.90
66610;DHT22;53468;48.276;14.416;2022-09-09T15:45:05;17.60;99.90
66610;DHT22;53468;48.276;14.416;2022-09-09T15:50:38;17.50;99.90
66610;DHT22;53468;48.276;14.416;2022-09-09T15:56:10;17.50;99.90
66610;DHT22;53468;48.276;14.416;2022-09-09T16:01:42;17.50;99.90
66610;DHT22;53468;48.276;14.416;2022-09-09T16:07:16;17.40;99.90
66610;DHT22;53468;48.276;14.416;2022-09-09T16:12:48;17.40;99.90
66610;DHT22;53468;48.276;14.416;2022-09-09T16:18:21;17.40;99.90
66610;DHT22;53468;48.276;14.416;2022-09-09T16:23:56;17.30;99.90
66610;DHT22;53468;48.276;14.416;2022-09-09T16:29:30;17.30;99.90
66610;DHT22;53468;48.276;14.416;2022-09-09T16:35:03;17.30;99.90
66610;DHT22;53468;48.276;14.416;2022-09-09T16:40:37;17.30;99.90
66610;DHT22;53468;48.276;14.416;2022-09-09T16:46:13;17.30;99.90
66610;DHT22;53468;48.276;14.416;2022-09-09T16:51:48;17.30;99.90
66610;DHT22;53468;48.276;14.416;2022-09-09T16:57:25;17.20;99.90
66610;DHT22;53468;48.276;14.416;2022-09-09T17:02:59;17.20;99.90
66610;DHT22;53468;48.276;14.416;2022-09-09T17:08:31;17.20;99.90
66610;DHT22;53468;48.276;14.416;2022-09-09T17:14:06;17.20;99.90
66610;DHT22;53468;48.276;14.416;2022-09-09T17:19:39;17.20;99.90
66610;DHT22;53468;48.276;14.416;2022-09-09T17:25:11;17.10;99.90
66610;DHT22;53468;48.276;14.416;2022-09-09T17:30:45;17.10;99.90
66610;DHT22;53468;48.276;14.416;2022-09-09T17:36:19;17.00;99.90
66610;DHT22;53468;48.276;14.416;2022-09-09T17:41:52;16.90;99.90
66610;DHT22;53468;48.276;14.416;2022-09-09T17:47:27;16.90;99.90
66610;DHT22;53468;48.276;14.416;2022-09-09T17:53:01;16.90;99.90
66610;DHT22;53468;48.276;14.416;2022-09-09T17:58:34;16.90;99.90
66610;DHT22;53468;48.276;14.416;2022-09-09T18:04:09;16.80;99.90
66610;DHT22;53468;48.276;14.416;2022-09-09T18:09:43;16.80;99.90
66610;DHT22;53468;48.276;14.416;2022-09-09T18:15:16;16.70;99.90
66610;DHT22;53468;48.276;14.416;2022-09-09T18:20:58;16.70;99.90
66610;DHT22;53468;48.276;14.416;2022-09-09T18:26:31;16.60;99.90
66610;DHT22;53468;48.276;14.416;2022-09-09T18:32:04;16.50;99.90
66610;DHT22;53468;48.276;14.416;2022-09-09T18:37:38;16.30;99.90
66610;DHT22;53468;48.276;14.416;2022-09-09T18:43:10;16.30;99.90
66610;DHT22;53468;48.276;14.416;2022-09-09T18:48:43;16.40;99.90
66610;DHT22;53468;48.276;14.416;2022-09-09T18:54:20;16.30;99.90
66610;DHT22;53468;48.276;14.416;2022-09-09T18:59:52;16.30;99.90
66610;DHT22;53468;48.276;14.416;2022-09-09T19:05:25;16.20;99.90
66610;DHT22;53468;48.276;14.416;2022-09-09T19:11:01;16.20;99.90
66610;DHT22;53468;48.276;14.416;2022-09-09T19:16:35;16.20;99.90
66610;DHT22;53468;48.276;14.416;2022-09-09T19:22:07;16.10;99.90
66610;DHT22;53468;48.276;14.416;2022-09-09T19:27:42;16.10;99.90
66610;DHT22;53468;48.276;14.416;2022-09-09T19:33:15;16.10;99.90
66610;DHT22;53468;48.276;14.416;2022-09-09T19:38:49;16.10;99.90
66610;DHT22;53468;48.276;14.416;2022-09-09T19:44:22;16.10;99.90
66610;DHT22;53468;48.276;14.416;2022-09-09T19:49:55;16.00;99.90
66610;DHT22;53468;48.276;14.416;2022-09-09T19:55:27;15.90;99.90
66610;DHT22;53468;48.276;14.416;2022-09-09T20:01:06;15.90;99.90
66610;DHT22;53468;48.276;14.416;2022-09-09T20:06:40;15.90;99.90
66610;DHT22;53468;48.276;14.416;2022-09-09T20:12:13;15.80;99.90
66610;DHT22;53468;48.276;14.416;2022-09-09T20:17:47;15.80;99.90
66610;DHT22;53468;48.276;14.416;2022-09-09T20:23:20;15.90;99.90
66610;DHT22;53468;48.276;14.416;2022-09-09T20:28:53;15.80;99.90
66610;DHT22;53468;48.276;14.416;2022-09-09T20:34:27;15.80;99.90
66610;DHT22;53468;48.276;14.416;2022-09-09T20:39:59;15.80;99.90
66610;DHT22;53468;48.276;14.416;2022-09-09T20:45:35;15.80;99.90
66610;DHT22;53468;48.276;14.416;2022-09-09T20:51:09;15.80;99.90
66610;DHT22;53468;48.276;14.416;2022-09-09T20:56:44;15.80;99.90
66610;DHT22;53468;48.276;14.416;2022-09-09T21:02:17;15.80;99.90
66610;DHT22;53468;48.276;14.416;2022-09-09T21:07:51;15.80;99.90
66610;DHT22;53468;48.276;14.416;2022-09-09T21:13:24;15.90;99.90
66610;DHT22;53468;48.276;14.416;2022-09-09T21:18:56;15.80;99.90
66610;DHT22;53468;48.276;14.416;2022-09-09T21:24:30;15.70;99.90
66610;DHT22;53468;48.276;14.416;2022-09-09T21:30:03;15.80;99.90
66610;DHT22;53468;48.276;14.416;2022-09-09T21:35:35;15.70;99.90
66610;DHT22;53468;48.276;14.416;2022-09-09T21:41:12;15.60;99.90
66610;DHT22;53468;48.276;14.416;2022-09-09T21:46:45;15.60;99.90
66610;DHT22;53468;48.276;14.416;2022-09-09T21:52:17;15.60;99.90
66610;DHT22;53468;48.276;14.416;2022-09-09T21:57:51;15.60;99.90
66610;DHT22;53468;48.276;14.416;2022-09-09T22:03:24;15.70;99.90
66610;DHT22;53468;48.276;14.416;2022-09-09T22:08:56;15.70;99.90
66610;DHT22;53468;48.276;14.416;2022-09-09T22:14:32;15.70;99.90
66610;DHT22;53468;48.276;14.416;2022-09-09T22:20:07;15.80;99.90
66610;DHT22;53468;48.276;14.416;2022-09-09T22:25:39;15.80;99.90
66610;DHT22;53468;48.276;14.416;2022-09-09T22:31:13;15.80;99.90
66610;DHT22;53468;48.276;14.416;2022-09-09T22:36:45;15.80;99.90
66610;DHT22;53468;48.276;14.416;2022-09-09T22:42:20;15.80;99.90
66610;DHT22;53468;48.276;14.416;2022-09-09T22:47:53;15.70;99.90
66610;DHT22;53468;48.276;14.416;2022-09-09T22:53:26;15.70;99.90
66610;DHT22;53468;48.276;14.416;2022-09-09T22:59:00;15.70;99.90
66610;DHT22;53468;48.276;14.416;2022-09-09T23:04:34;15.60;99.90
66610;DHT22;53468;48.276;14.416;2022-09-09T23:10:07;15.60;99.90
66610;DHT22;53468;48.276;14.416;2022-09-09T23:15:40;15.60;99.90
66610;DHT22;53468;48.276;14.416;2022-09-09T23:21:17;15.60;99.90
66610;DHT22;53468;48.276;14.416;2022-09-09T23:26:50;15.60;99.90
66610;DHT22;53468;48.276;14.416;2022-09-09T23:32:22;15.50;99.90
66610;DHT22;53468;48.276;14.416;2022-09-09T23:37:56;15.50;99.90
66610;DHT22;53468;48.276;14.416;2022-09-09T23:43:30;15.50;99.90
66610;DHT22;53468;48.276;14.416;2022-09-09T23:49:04;15.50;99.90
66610;DHT22;53468;48.276;14.416;2022-09-09T23:54:39;15.50;99.90
